Arbalist — J8B3636 — position and weather

sailwx.info

Track history (hours):
 
Tides and Currents Weather Stations Pressure Air Temp Water Temp Dewpoint Dewpoint Depression Visibility Wind Speed Wind Dir Waves Ship Positions

Arbalist

Last reported at 2014-Aug-17 02:17 UTC. Time now 2014-Aug-22 13:47 UTC.
Position N 41°02' E 028°60'.

Length 115 m; draft 4.5 m.

Type: Cargo ship. MMSI: 37579300.

Date/timePositionNaut miles runAvg speedWind from/ knotsBaromVisibWave heightAir tempDewpointWater temp
2014-Aug-17 02:17N 41°02' E 028°60'5 6.1
2014-Aug-17 01:26N 40°56' E 029°00'5 5.2
2014-Aug-17 00:29N 40°53' E 028°55'6 5.9
2014-Aug-16 23:32N 40°48' E 028°52'1 0.7
2014-Aug-16 22:30N 40°48' E 028°53'1 0.8
2014-Aug-16 21:32N 40°48' E 028°54'1 0.8
2014-Aug-16 20:32N 40°49' E 028°55'1 0.9
2014-Aug-16 19:33N 40°49' E 028°56'1 0.9
2014-Aug-16 18:33N 40°49' E 028°57'1 0.9
2014-Aug-16 17:32N 40°50' E 028°58'2 2.1
2014-Aug-16 16:30N 40°48' E 028°57'2 1.7
2014-Aug-16 15:33N 40°47' E 028°56'1 0.7
2014-Aug-16 14:33N 40°47' E 028°56'1 0.8
2014-Aug-16 13:30N 40°48' E 028°56'1 0.7
2014-Aug-16 12:22N 40°49' E 028°57'1 0.6
2014-Aug-16 11:33N 40°49' E 028°57'1 0.8
2014-Aug-16 10:30N 40°50' E 028°58'8 6.2
2014-Aug-16 09:14N 40°51' E 028°47'7 8.5
2014-Aug-16 08:27N 40°49' E 028°39'8 8.4
2014-Aug-16 07:30N 40°48' E 028°28'9 8.2
2014-Aug-16 06:26N 40°47' E 028°17'16 8.3
2014-Aug-16 04:33N 40°45' E 027°56'105 7.4
2014-Aug-15 14:25N 39°55' E 025°56'108 8.3
2014-Aug-15 01:29N 38°19' E 024°51'57 8.3
2014-Aug-14 18:32N 37°35' E 024°04'9 8.8
2014-Aug-14 17:33N 37°37' E 023°53'8 8.5
2014-Aug-14 16:34N 37°39' E 023°43'8 8.0
2014-Aug-14 15:33N 37°46' E 023°38'8 8.0
2014-Aug-14 14:34N 37°54' E 023°34'2 1.8
2014-Aug-14 13:29N 37°55' E 023°33'0 0.1
2014-Aug-14 12:29N 37°55' E 023°33'0 0.1
2014-Aug-14 11:32N 37°55' E 023°33'0 0.2
2014-Aug-14 10:32N 37°55' E 023°33'0 0.0
2014-Aug-14 09:32N 37°55' E 023°33'0 0.0
2014-Aug-14 08:32N 37°55' E 023°33'0 0.0
2014-Aug-14 07:32N 37°55' E 023°33'0 0.0
2014-Aug-14 06:32N 37°55' E 023°33'0 0.0
2014-Aug-14 05:32N 37°55' E 023°33'0 0.0
2014-Aug-14 04:32N 37°55' E 023°33'0 0.0
2014-Aug-14 03:32N 37°55' E 023°33'0 0.0
2014-Aug-14 02:32N 37°55' E 023°33'0 0.0
2014-Aug-14 01:29N 37°55' E 023°33'0 0.0
2014-Aug-14 00:32N 37°55' E 023°33'0 0.0
2014-Aug-13 23:32N 37°55' E 023°33'0 0.1
2014-Aug-13 22:31N 37°55' E 023°33'0 0.0
2014-Aug-13 21:31N 37°55' E 023°33'0 0.0
2014-Aug-13 20:28N 37°55' E 023°33'0 0.0
2014-Aug-13 19:31N 37°55' E 023°33'0 0.0
2014-Aug-13 18:31N 37°55' E 023°33'0 0.0
2014-Aug-13 17:31N 37°55' E 023°33'0 0.0
2014-Aug-13 08:15N 37°55' E 023°33'0 0.0
2014-Aug-13 07:33N 37°55' E 023°33'0 0.0
2014-Aug-13 06:33N 37°55' E 023°33'0 0.0
2014-Aug-13 05:33N 37°55' E 023°33'0 0.0
2014-Aug-13 04:33N 37°55' E 023°33'1 0.7
2014-Aug-13 03:33N 37°55' E 023°34'6 5.9
2014-Aug-13 02:33N 37°51' E 023°39'8 8.2
2014-Aug-13 01:33N 37°43' E 023°44'  
Track history (hours):
 
Tides and Currents Weather Stations Pressure Air Temp Water Temp Dewpoint Dewpoint Depression Visibility Wind Speed Wind Dir Waves Ship Positions

Arbalist

Last reported at 2014-Aug-17 02:17 UTC. Time now 2014-Aug-22 13:47 UTC.
Position N 41°02' E 028°60'.

Length 115 m; draft 4.5 m.

Type: Cargo ship. MMSI: 37579300.

Date/timePositionNaut miles runAvg speedWind from/ knotsBaromVisibWave heightAir tempDewpointWater temp
2014-Aug-17 02:17N 41°02' E 028°60'5 6.1
2014-Aug-17 01:26N 40°56' E 029°00'5 5.2
2014-Aug-17 00:29N 40°53' E 028°55'6 5.9
2014-Aug-16 23:32N 40°48' E 028°52'1 0.7
2014-Aug-16 22:30N 40°48' E 028°53'1 0.8
2014-Aug-16 21:32N 40°48' E 028°54'1 0.8
2014-Aug-16 20:32N 40°49' E 028°55'1 0.9
2014-Aug-16 19:33N 40°49' E 028°56'1 0.9
2014-Aug-16 18:33N 40°49' E 028°57'1 0.9
2014-Aug-16 17:32N 40°50' E 028°58'2 2.1
2014-Aug-16 16:30N 40°48' E 028°57'2 1.7
2014-Aug-16 15:33N 40°47' E 028°56'1 0.7
2014-Aug-16 14:33N 40°47' E 028°56'1 0.8
2014-Aug-16 13:30N 40°48' E 028°56'1 0.7
2014-Aug-16 12:22N 40°49' E 028°57'1 0.6
2014-Aug-16 11:33N 40°49' E 028°57'1 0.8
2014-Aug-16 10:30N 40°50' E 028°58'8 6.2
2014-Aug-16 09:14N 40°51' E 028°47'7 8.5
2014-Aug-16 08:27N 40°49' E 028°39'8 8.4
2014-Aug-16 07:30N 40°48' E 028°28'9 8.2
2014-Aug-16 06:26N 40°47' E 028°17'16 8.3
2014-Aug-16 04:33N 40°45' E 027°56'105 7.4
2014-Aug-15 14:25N 39°55' E 025°56'108 8.3
2014-Aug-15 01:29N 38°19' E 024°51'57 8.3
2014-Aug-14 18:32N 37°35' E 024°04'9 8.8
2014-Aug-14 17:33N 37°37' E 023°53'8 8.5
2014-Aug-14 16:34N 37°39' E 023°43'8 8.0
2014-Aug-14 15:33N 37°46' E 023°38'8 8.0
2014-Aug-14 14:34N 37°54' E 023°34'2 1.8
2014-Aug-14 13:29N 37°55' E 023°33'0 0.1
2014-Aug-14 12:29N 37°55' E 023°33'0 0.1
2014-Aug-14 11:32N 37°55' E 023°33'0 0.2
2014-Aug-14 10:32N 37°55' E 023°33'0 0.0
2014-Aug-14 09:32N 37°55' E 023°33'0 0.0
2014-Aug-14 08:32N 37°55' E 023°33'0 0.0
2014-Aug-14 07:32N 37°55' E 023°33'0 0.0
2014-Aug-14 06:32N 37°55' E 023°33'0 0.0
2014-Aug-14 05:32N 37°55' E 023°33'0 0.0
2014-Aug-14 04:32N 37°55' E 023°33'0 0.0
2014-Aug-14 03:32N 37°55' E 023°33'0 0.0
2014-Aug-14 02:32N 37°55' E 023°33'0 0.0
2014-Aug-14 01:29N 37°55' E 023°33'0 0.0
2014-Aug-14 00:32N 37°55' E 023°33'0 0.0
2014-Aug-13 23:32N 37°55' E 023°33'0 0.1
2014-Aug-13 22:31N 37°55' E 023°33'0 0.0
2014-Aug-13 21:31N 37°55' E 023°33'0 0.0
2014-Aug-13 20:28N 37°55' E 023°33'0 0.0
2014-Aug-13 19:31N 37°55' E 023°33'0 0.0
2014-Aug-13 18:31N 37°55' E 023°33'0 0.0
2014-Aug-13 17:31N 37°55' E 023°33'0 0.0
2014-Aug-13 08:15N 37°55' E 023°33'0 0.0
2014-Aug-13 07:33N 37°55' E 023°33'0 0.0
2014-Aug-13 06:33N 37°55' E 023°33'0 0.0
2014-Aug-13 05:33N 37°55' E 023°33'0 0.0
2014-Aug-13 04:33N 37°55' E 023°33'1 0.7
2014-Aug-13 03:33N 37°55' E 023°34'6 5.9
2014-Aug-13 02:33N 37°51' E 023°39'8 8.2
2014-Aug-13 01:33N 37°43' E 023°44'  

Dump ship's entire track history